createdAt,value
2018-07-31T00:02:02.500Z,8.00
2018-07-31T00:04:30.722Z,7.97
2018-07-31T00:06:58.807Z,8.27
2018-07-31T00:09:26.940Z,8.00
2018-07-31T00:11:54.996Z,8.70
2018-07-31T00:14:23.099Z,8.20
2018-07-31T00:16:51.216Z,8.33
2018-07-31T00:19:19.342Z,8.00
2018-07-31T00:21:47.431Z,8.73
2018-07-31T00:24:15.519Z,8.37
2018-07-31T00:26:43.610Z,9.03
2018-07-31T00:29:11.670Z,9.10
2018-07-31T00:31:39.735Z,8.50
2018-07-31T00:34:07.783Z,9.37
2018-07-31T00:36:36.942Z,8.53
2018-07-31T00:39:07.195Z,8.20
2018-07-31T00:41:35.268Z,8.67
2018-07-31T00:44:03.335Z,8.53
2018-07-31T00:46:31.383Z,8.97
2018-07-31T00:48:59.526Z,9.33
2018-07-31T00:51:27.560Z,9.57
2018-07-31T00:53:55.619Z,8.90
2018-07-31T00:56:23.720Z,7.77
2018-07-31T00:58:51.775Z,8.00
2018-07-31T01:01:19.839Z,9.30
2018-07-31T01:03:47.899Z,9.23
2018-07-31T01:06:17.315Z,8.17
2018-07-31T01:08:45.371Z,8.90
2018-07-31T01:11:13.427Z,8.40
2018-07-31T01:13:41.502Z,8.40
2018-07-31T01:16:09.588Z,9.70
2018-07-31T01:18:37.659Z,8.33
2018-07-31T01:21:05.731Z,9.17
2018-07-31T01:23:33.783Z,9.03
2018-07-31T01:26:01.867Z,8.97
2018-07-31T01:28:29.924Z,8.03
2018-07-31T01:30:58.006Z,9.43
2018-07-31T01:33:26.087Z,7.97
2018-07-31T01:35:54.171Z,8.87
2018-07-31T01:38:22.243Z,8.83
2018-07-31T01:40:50.311Z,8.13
2018-07-31T01:43:18.370Z,9.00
2018-07-31T01:45:46.476Z,8.60
2018-07-31T01:48:14.507Z,9.20
2018-07-31T01:50:42.590Z,8.50
2018-07-31T01:53:10.655Z,8.60
2018-07-31T01:55:38.712Z,9.20
2018-07-31T01:58:06.792Z,9.10
2018-07-31T02:00:34.852Z,8.73
2018-07-31T02:03:02.931Z,10.00
2018-07-31T02:05:31.013Z,8.73
2018-07-31T02:07:59.091Z,9.27
2018-07-31T02:10:27.159Z,8.87
2018-07-31T02:12:55.219Z,9.70
2018-07-31T02:15:23.284Z,8.93
2018-07-31T02:17:51.399Z,9.20
2018-07-31T02:20:19.431Z,9.00
2018-07-31T02:22:47.499Z,9.27
2018-07-31T02:25:15.562Z,8.87
2018-07-31T02:27:43.639Z,8.63
2018-07-31T02:30:17.159Z,8.73
2018-07-31T02:32:45.256Z,8.50
2018-07-31T02:35:13.327Z,8.33
2018-07-31T02:37:41.391Z,8.80
2018-07-31T02:40:09.458Z,9.37
2018-07-31T02:42:37.526Z,7.97
2018-07-31T02:45:08.180Z,9.20
2018-07-31T02:47:36.268Z,9.33
2018-07-31T02:50:04.863Z,8.50
2018-07-31T02:52:32.951Z,8.67
2018-07-31T02:55:01.008Z,8.60
2018-07-31T02:57:29.071Z,8.90
2018-07-31T02:59:57.153Z,9.00
2018-07-31T03:02:25.232Z,9.13
2018-07-31T03:04:53.339Z,9.07
2018-07-31T03:07:21.391Z,9.40
2018-07-31T03:09:49.479Z,8.87
2018-07-31T03:12:17.572Z,8.73
2018-07-31T03:14:45.634Z,8.93
2018-07-31T03:17:13.722Z,8.93
2018-07-31T03:19:41.813Z,8.47
2018-07-31T03:22:09.881Z,8.23
2018-07-31T03:24:37.973Z,8.47
2018-07-31T03:27:06.026Z,8.70
2018-07-31T03:29:34.095Z,8.80
2018-07-31T03:32:02.174Z,9.23
2018-07-31T03:34:30.285Z,9.10
2018-07-31T03:36:58.341Z,9.60
2018-07-31T03:39:26.381Z,9.17
2018-07-31T03:41:54.464Z,8.30
2018-07-31T03:44:22.515Z,7.80
2018-07-31T03:46:50.371Z,9.20
2018-07-31T03:49:18.464Z,9.17
2018-07-31T03:51:46.527Z,7.30
2018-07-31T03:54:14.595Z,8.40
2018-07-31T03:56:42.663Z,8.87
2018-07-31T03:59:10.781Z,8.43
2018-07-31T04:01:38.898Z,8.63
2018-07-31T04:04:06.980Z,7.80
2018-07-31T04:06:35.033Z,9.13
2018-07-31T04:09:03.134Z,8.60
2018-07-31T04:11:31.188Z,8.20
2018-07-31T04:13:59.259Z,8.73
2018-07-31T04:16:27.331Z,8.40
2018-07-31T04:18:55.386Z,9.23
2018-07-31T04:21:23.654Z,9.30
2018-07-31T04:23:51.756Z,8.83
2018-07-31T04:26:19.962Z,9.07
2018-07-31T04:28:47.902Z,8.33
2018-07-31T04:31:16.038Z,8.67
2018-07-31T04:33:44.405Z,8.30
2018-07-31T04:36:12.576Z,8.10
2018-07-31T04:38:40.604Z,7.47
2018-07-31T04:41:08.764Z,8.73
2018-07-31T04:43:36.784Z,8.50
2018-07-31T04:46:04.971Z,8.03
2018-07-31T04:48:33.043Z,8.33
2018-07-31T04:51:01.116Z,7.87
2018-07-31T04:53:29.235Z,7.60
2018-07-31T04:55:57.291Z,8.13
2018-07-31T04:58:25.347Z,7.90
2018-07-31T05:00:53.405Z,8.97
2018-07-31T05:03:21.467Z,7.40
2018-07-31T05:05:49.523Z,7.90
2018-07-31T05:08:17.621Z,7.00
2018-07-31T05:10:45.699Z,8.70
2018-07-31T05:13:13.783Z,7.33
2018-07-31T05:15:41.850Z,8.30
2018-07-31T05:18:09.917Z,7.17
2018-07-31T05:20:38.003Z,8.10
2018-07-31T05:23:06.135Z,8.03
2018-07-31T05:25:34.191Z,8.37
2018-07-31T05:28:02.284Z,7.60
2018-07-31T05:30:30.319Z,8.07
2018-07-31T05:32:58.373Z,8.40
2018-07-31T05:35:26.496Z,7.53
2018-07-31T05:37:54.544Z,7.73
2018-07-31T05:40:22.951Z,9.17
2018-07-31T05:42:50.991Z,7.50
2018-07-31T05:45:19.027Z,7.53
2018-07-31T05:47:47.113Z,6.80
2018-07-31T05:50:15.147Z,8.60
2018-07-31T05:52:43.214Z,7.93
2018-07-31T05:55:11.302Z,6.63
2018-07-31T05:57:39.351Z,7.50
2018-07-31T06:00:08.034Z,7.23
2018-07-31T06:02:36.082Z,7.90
2018-07-31T06:05:04.127Z,8.30
2018-07-31T06:07:32.212Z,7.23
2018-07-31T06:10:00.251Z,7.30
2018-07-31T06:12:28.290Z,6.97
2018-07-31T06:14:56.350Z,7.43
2018-07-31T06:17:24.383Z,6.83
2018-07-31T06:19:52.428Z,7.07
2018-07-31T06:22:20.471Z,6.80
2018-07-31T06:24:48.560Z,7.40
2018-07-31T06:27:16.719Z,6.37
2018-07-31T06:29:44.765Z,6.47
2018-07-31T06:32:12.798Z,8.00
2018-07-31T06:34:40.871Z,6.23
2018-07-31T06:37:08.940Z,6.00
2018-07-31T06:39:37.494Z,6.67
2018-07-31T06:42:05.707Z,6.93
2018-07-31T06:44:33.748Z,7.07
2018-07-31T06:47:01.784Z,7.07
2018-07-31T06:49:29.859Z,6.23
2018-07-31T06:51:57.926Z,6.77
2018-07-31T06:54:26.000Z,7.03
2018-07-31T06:56:54.148Z,6.93
2018-07-31T06:59:22.194Z,6.40
2018-07-31T07:01:50.240Z,7.53
2018-07-31T07:04:18.304Z,6.50
2018-07-31T07:06:46.343Z,8.60
2018-07-31T07:09:14.461Z,7.50
2018-07-31T07:11:42.487Z,7.40
2018-07-31T07:14:10.571Z,7.00
2018-07-31T07:16:38.676Z,7.03
2018-07-31T07:19:06.743Z,7.37
2018-07-31T07:21:34.779Z,6.90
2018-07-31T07:24:02.821Z,6.30
2018-07-31T07:26:30.906Z,6.43
2018-07-31T07:28:58.953Z,7.03
2018-07-31T07:31:27.013Z,7.17
2018-07-31T07:33:55.429Z,7.10
2018-07-31T07:36:23.353Z,6.70
2018-07-31T07:38:51.418Z,7.00
2018-07-31T07:41:19.446Z,6.60
2018-07-31T07:43:47.500Z,6.07
2018-07-31T07:46:15.587Z,6.90
2018-07-31T07:48:43.626Z,6.90
2018-07-31T07:51:11.656Z,6.00
2018-07-31T07:53:39.722Z,7.20
2018-07-31T07:56:07.773Z,6.63
2018-07-31T07:58:35.821Z,6.73
2018-07-31T08:01:03.859Z,6.70
2018-07-31T08:03:31.965Z,6.63
2018-07-31T08:06:00.016Z,6.77
2018-07-31T08:08:28.082Z,6.17
2018-07-31T08:10:56.155Z,6.23
2018-07-31T08:13:24.226Z,7.20
2018-07-31T08:15:52.311Z,6.80
2018-07-31T08:18:20.387Z,7.93
2018-07-31T08:20:48.454Z,6.63
2018-07-31T08:23:16.547Z,6.77
2018-07-31T08:25:44.603Z,5.60
2018-07-31T08:28:12.648Z,6.30
2018-07-31T08:30:40.724Z,6.77
2018-07-31T08:33:08.776Z,5.87
2018-07-31T08:35:36.846Z,6.53
2018-07-31T08:38:04.954Z,6.10
2018-07-31T08:40:33.003Z,6.00
2018-07-31T08:43:01.048Z,6.57
2018-07-31T08:45:29.118Z,6.27
2018-07-31T08:47:57.155Z,6.53
2018-07-31T08:50:25.199Z,5.90
2018-07-31T08:52:53.268Z,6.67
2018-07-31T08:55:21.308Z,6.33
2018-07-31T08:57:49.335Z,6.47
2018-07-31T09:00:17.459Z,7.03
2018-07-31T09:02:45.563Z,6.63
2018-07-31T09:05:13.595Z,6.77
2018-07-31T09:07:41.650Z,6.37
2018-07-31T09:10:09.712Z,7.17
2018-07-31T09:12:37.739Z,6.97
2018-07-31T09:15:05.886Z,6.00
2018-07-31T09:17:34.002Z,6.90
2018-07-31T09:20:02.021Z,7.47
2018-07-31T09:22:30.143Z,7.40
2018-07-31T09:24:58.220Z,6.00
2018-07-31T09:27:26.281Z,6.30
2018-07-31T09:29:54.353Z,6.27
2018-07-31T09:32:27.886Z,6.90
2018-07-31T09:34:55.975Z,7.47
2018-07-31T09:37:24.032Z,7.33
2018-07-31T09:39:52.070Z,6.97
2018-07-31T09:42:20.135Z,7.17
2018-07-31T09:44:48.222Z,6.70
2018-07-31T09:47:16.263Z,6.53
2018-07-31T09:49:44.316Z,6.90
2018-07-31T09:52:12.355Z,7.13
2018-07-31T09:54:40.931Z,7.47
2018-07-31T09:57:09.027Z,7.70
2018-07-31T09:59:37.047Z,7.60
2018-07-31T10:02:05.124Z,7.87
2018-07-31T10:04:33.176Z,8.00
2018-07-31T10:07:01.322Z,7.17
2018-07-31T10:09:29.386Z,7.90
2018-07-31T10:11:57.465Z,8.10
2018-07-31T10:14:25.523Z,7.77
2018-07-31T10:16:53.587Z,7.77
2018-07-31T10:19:21.709Z,7.40
2018-07-31T10:21:49.749Z,8.30
2018-07-31T10:24:17.887Z,8.17
2018-07-31T10:26:45.882Z,8.10
2018-07-31T10:29:13.938Z,7.90
2018-07-31T10:31:41.978Z,8.40
2018-07-31T10:34:10.036Z,7.83
2018-07-31T10:36:38.099Z,8.07
2018-07-31T10:39:07.691Z,7.50
2018-07-31T10:41:35.767Z,8.47
2018-07-31T10:44:03.929Z,6.90
2018-07-31T10:46:31.939Z,8.33
2018-07-31T10:49:01.058Z,7.73
2018-07-31T10:51:29.127Z,6.93
2018-07-31T10:53:57.183Z,7.30
2018-07-31T10:56:25.228Z,7.93
2018-07-31T10:58:53.288Z,7.00
2018-07-31T11:01:21.338Z,7.70
2018-07-31T11:03:49.378Z,7.20
2018-07-31T11:06:17.489Z,7.40
2018-07-31T11:08:45.526Z,7.23
2018-07-31T11:11:13.576Z,7.07
2018-07-31T11:13:41.648Z,6.93
2018-07-31T11:16:09.736Z,7.83
2018-07-31T11:18:37.783Z,7.73
2018-07-31T11:21:06.065Z,7.40
2018-07-31T11:23:34.010Z,7.83
2018-07-31T11:26:02.052Z,7.57
2018-07-31T11:28:30.105Z,7.10
2018-07-31T11:30:58.172Z,7.13
2018-07-31T11:33:26.243Z,7.50
2018-07-31T11:35:54.290Z,6.90
2018-07-31T11:38:22.381Z,8.10
2018-07-31T11:40:50.436Z,6.73
2018-07-31T11:43:18.492Z,7.60
2018-07-31T11:45:46.531Z,7.80
2018-07-31T11:48:14.571Z,7.40
2018-07-31T11:50:42.623Z,7.50
2018-07-31T11:53:10.687Z,8.00
2018-07-31T11:55:38.748Z,8.07
2018-07-31T11:58:06.827Z,8.37
2018-07-31T12:00:34.885Z,7.97
2018-07-31T12:03:02.939Z,7.73
2018-07-31T12:05:30.979Z,7.77
2018-07-31T12:07:59.043Z,7.40
2018-07-31T12:10:27.099Z,7.03
2018-07-31T12:12:55.149Z,7.47
2018-07-31T12:15:23.224Z,8.10
2018-07-31T12:17:51.329Z,7.87
2018-07-31T12:20:19.392Z,7.60
2018-07-31T12:22:47.490Z,8.27
2018-07-31T12:25:15.534Z,8.27
2018-07-31T12:27:43.592Z,7.87
2018-07-31T12:30:11.895Z,8.07
2018-07-31T12:32:40.939Z,7.70
2018-07-31T12:35:09.064Z,7.53
2018-07-31T12:37:37.105Z,8.60
2018-07-31T12:40:05.642Z,7.10
2018-07-31T12:42:33.671Z,7.27
2018-07-31T12:45:01.743Z,6.50
2018-07-31T12:47:29.800Z,7.20
2018-07-31T12:49:57.866Z,8.90
2018-07-31T12:52:26.135Z,7.40
2018-07-31T12:54:54.182Z,7.87
2018-07-31T12:57:22.245Z,7.20
2018-07-31T12:59:50.318Z,7.90
2018-07-31T13:02:18.471Z,7.83
2018-07-31T13:04:46.503Z,8.30
2018-07-31T13:07:14.574Z,8.33
2018-07-31T13:09:42.615Z,8.27
2018-07-31T13:12:10.704Z,7.27
2018-07-31T13:14:38.754Z,7.80
2018-07-31T13:17:06.833Z,7.90
2018-07-31T13:19:34.923Z,8.13
2018-07-31T13:22:02.987Z,7.97
2018-07-31T13:24:31.047Z,7.00
2018-07-31T13:26:59.106Z,7.50
2018-07-31T13:29:27.165Z,7.30
2018-07-31T13:31:55.229Z,8.13
2018-07-31T13:34:23.528Z,7.33
2018-07-31T13:36:51.631Z,7.10
2018-07-31T13:39:19.695Z,7.80
2018-07-31T13:41:47.777Z,8.00
2018-07-31T13:44:15.848Z,7.30
2018-07-31T13:46:43.908Z,7.93
2018-07-31T13:49:11.980Z,8.57
2018-07-31T13:51:40.036Z,7.57
2018-07-31T13:54:08.111Z,8.33
2018-07-31T13:56:36.175Z,8.37
2018-07-31T13:59:04.234Z,7.10
2018-07-31T14:01:32.356Z,7.40
2018-07-31T14:04:00.436Z,7.13
2018-07-31T14:06:28.463Z,7.57
2018-07-31T14:08:56.538Z,7.43
2018-07-31T14:11:24.710Z,7.90
2018-07-31T14:13:52.944Z,7.97
2018-07-31T14:16:20.928Z,7.00
2018-07-31T14:18:48.981Z,8.23
2018-07-31T14:21:17.142Z,7.63
2018-07-31T14:23:45.203Z,7.97
2018-07-31T14:26:13.291Z,7.50
2018-07-31T14:28:41.333Z,8.50
2018-07-31T14:31:09.392Z,7.10
2018-07-31T14:36:27.932Z,7.70
2018-07-31T14:38:56.017Z,8.03
2018-07-31T14:41:24.076Z,6.80
2018-07-31T14:43:52.150Z,6.53
2018-07-31T14:46:20.221Z,7.40
2018-07-31T14:48:48.302Z,6.97
2018-07-31T14:51:16.365Z,7.93
2018-07-31T14:53:44.431Z,7.40
2018-07-31T14:56:12.526Z,7.87
2018-07-31T14:58:40.567Z,7.93
2018-07-31T15:01:08.640Z,7.10
2018-07-31T15:03:36.741Z,7.30
2018-07-31T15:06:04.774Z,7.70
2018-07-31T15:08:37.475Z,6.97
2018-07-31T15:11:06.068Z,7.20
2018-07-31T15:13:34.118Z,7.27
2018-07-31T15:16:02.225Z,7.20
2018-07-31T15:18:30.258Z,7.60
2018-07-31T15:20:58.330Z,7.07
2018-07-31T15:23:26.407Z,6.90
2018-07-31T15:25:54.528Z,6.97
2018-07-31T15:28:22.863Z,7.30
2018-07-31T15:30:50.928Z,7.90
2018-07-31T15:33:19.207Z,7.37
2018-07-31T15:35:47.384Z,7.00
2018-07-31T15:38:15.380Z,6.53
2018-07-31T15:40:43.496Z,7.10
2018-07-31T15:43:11.550Z,7.03
2018-07-31T15:45:39.690Z,7.07
2018-07-31T15:48:07.837Z,7.70
2018-07-31T15:50:35.917Z,6.57
2018-07-31T15:53:03.983Z,6.47
2018-07-31T15:55:32.052Z,7.93
2018-07-31T15:58:00.107Z,7.87
2018-07-31T16:00:28.239Z,6.97
2018-07-31T16:02:56.275Z,6.40
2018-07-31T16:05:24.336Z,7.00
2018-07-31T16:07:52.390Z,6.73
2018-07-31T16:10:20.464Z,6.73
2018-07-31T16:12:48.620Z,7.10
2018-07-31T16:15:16.703Z,6.97
2018-07-31T16:17:44.845Z,6.70
2018-07-31T16:20:12.942Z,6.80
2018-07-31T16:22:41.022Z,6.80
2018-07-31T16:25:09.115Z,6.30
2018-07-31T16:27:37.256Z,6.70
2018-07-31T16:30:05.579Z,6.97
2018-07-31T16:32:33.765Z,6.47
2018-07-31T16:35:01.839Z,6.90
2018-07-31T16:37:29.912Z,6.13
2018-07-31T16:39:57.970Z,6.30
2018-07-31T16:42:26.057Z,6.43
2018-07-31T16:45:57.548Z,6.33
2018-07-31T16:48:25.621Z,7.07
2018-07-31T16:50:53.671Z,6.43
2018-07-31T16:53:21.766Z,5.37
2018-07-31T16:55:49.844Z,6.83
2018-07-31T16:58:17.878Z,6.07
2018-07-31T17:00:45.978Z,7.17
2018-07-31T17:03:14.038Z,6.80
2018-07-31T17:05:42.098Z,7.40
2018-07-31T17:08:10.163Z,6.63
2018-07-31T17:10:38.243Z,6.60
2018-07-31T17:13:06.329Z,6.40
2018-07-31T17:15:34.398Z,6.80
2018-07-31T17:18:02.463Z,6.50
2018-07-31T17:20:30.566Z,6.20
2018-07-31T17:22:58.618Z,6.30
2018-07-31T17:25:26.671Z,7.57
2018-07-31T17:27:54.763Z,6.60
2018-07-31T17:30:22.867Z,7.03
2018-07-31T17:32:50.918Z,7.50
2018-07-31T17:35:18.988Z,5.80
2018-07-31T17:37:47.098Z,6.83
2018-07-31T17:40:15.183Z,7.10
2018-07-31T17:42:43.271Z,7.23
2018-07-31T17:45:11.325Z,7.00
2018-07-31T17:47:39.429Z,7.10
2018-07-31T17:50:07.492Z,6.60
2018-07-31T17:52:35.547Z,7.17
2018-07-31T17:55:03.623Z,5.87
2018-07-31T17:57:31.820Z,7.00
2018-07-31T17:59:59.872Z,6.20
2018-07-31T18:02:27.939Z,6.20
2018-07-31T18:04:56.108Z,6.43
2018-07-31T18:07:24.182Z,5.80
2018-07-31T18:09:52.231Z,6.67
2018-07-31T18:12:20.294Z,8.30
2018-07-31T18:14:48.453Z,6.30
2018-07-31T18:17:16.486Z,7.20
2018-07-31T18:19:44.538Z,5.93
2018-07-31T18:22:12.630Z,6.50
2018-07-31T18:24:40.707Z,6.63
2018-07-31T18:27:08.752Z,6.10
2018-07-31T18:29:37.861Z,6.67
2018-07-31T18:32:06.024Z,7.40
2018-07-31T18:34:34.103Z,6.33
2018-07-31T18:37:02.185Z,6.63
2018-07-31T18:39:30.240Z,5.93
2018-07-31T18:41:58.287Z,6.90
2018-07-31T18:44:26.347Z,6.93
2018-07-31T18:46:54.395Z,6.43
2018-07-31T18:49:22.503Z,5.60
2018-07-31T18:51:50.548Z,6.70
2018-07-31T18:54:18.673Z,5.87
2018-07-31T18:56:46.730Z,6.60
2018-07-31T18:59:14.767Z,6.03
2018-07-31T19:01:42.910Z,6.40
2018-07-31T19:04:10.931Z,5.90
2018-07-31T19:06:39.029Z,6.40
2018-07-31T19:09:10.061Z,6.23
2018-07-31T19:11:38.444Z,6.03
2018-07-31T19:14:06.610Z,6.13
2018-07-31T19:16:34.659Z,6.93
2018-07-31T19:19:02.712Z,6.50
2018-07-31T19:21:30.794Z,6.20
2018-07-31T19:23:58.863Z,7.00
2018-07-31T19:26:26.951Z,6.30
2018-07-31T19:28:55.012Z,6.70
2018-07-31T19:31:23.083Z,7.03
2018-07-31T19:33:51.196Z,6.60
2018-07-31T19:36:19.539Z,7.03
2018-07-31T19:38:47.628Z,6.70
2018-07-31T19:41:15.720Z,7.50
2018-07-31T19:43:43.760Z,7.10
2018-07-31T19:46:11.818Z,7.50
2018-07-31T19:48:39.899Z,6.10
2018-07-31T19:51:08.030Z,6.43
2018-07-31T19:53:36.198Z,7.37
2018-07-31T19:56:04.243Z,6.97
2018-07-31T19:58:32.430Z,6.20
2018-07-31T20:01:00.501Z,6.67
2018-07-31T20:03:28.535Z,7.53
2018-07-31T20:05:56.583Z,6.90
2018-07-31T20:08:24.753Z,8.40
2018-07-31T20:10:52.733Z,7.30
2018-07-31T20:13:20.784Z,7.63
2018-07-31T20:15:48.907Z,7.20
2018-07-31T20:18:16.884Z,7.23
2018-07-31T20:20:45.016Z,7.30
2018-07-31T20:23:13.073Z,7.23
2018-07-31T20:25:41.115Z,7.60
2018-07-31T20:28:09.173Z,7.13
2018-07-31T20:30:37.304Z,7.80
2018-07-31T20:33:05.335Z,8.13
2018-07-31T20:35:33.408Z,8.00
2018-07-31T20:38:01.461Z,7.70
2018-07-31T20:40:29.528Z,7.87
2018-07-31T20:42:57.567Z,7.87
2018-07-31T20:45:25.611Z,7.70
2018-07-31T20:47:53.695Z,7.90
2018-07-31T20:50:21.770Z,7.47
2018-07-31T20:52:49.880Z,7.37
2018-07-31T20:55:17.943Z,7.50
2018-07-31T20:57:46.008Z,7.00
2018-07-31T21:00:14.047Z,6.87
2018-07-31T21:02:42.103Z,7.80
2018-07-31T21:05:10.192Z,7.43
2018-07-31T21:07:38.235Z,7.07
2018-07-31T21:10:06.373Z,6.17
2018-07-31T21:12:34.426Z,7.50
2018-07-31T21:15:02.482Z,7.00
2018-07-31T21:17:30.543Z,7.50
2018-07-31T21:19:58.595Z,7.60
2018-07-31T21:22:28.380Z,7.90
2018-07-31T21:24:56.448Z,7.10
2018-07-31T21:27:24.495Z,8.40
2018-07-31T21:29:52.564Z,8.07
2018-07-31T21:32:20.628Z,6.80
2018-07-31T21:34:49.064Z,8.50
2018-07-31T21:37:17.116Z,7.80
2018-07-31T21:39:45.162Z,7.73
2018-07-31T21:42:13.243Z,7.43
2018-07-31T21:44:41.296Z,7.90
2018-07-31T21:47:09.348Z,7.60
2018-07-31T21:49:37.450Z,7.50
2018-07-31T21:52:05.512Z,7.10
2018-07-31T21:54:33.554Z,8.10
2018-07-31T21:57:01.597Z,7.87
2018-07-31T21:59:29.657Z,7.27
2018-07-31T22:01:57.707Z,7.20
2018-07-31T22:04:25.762Z,7.40
2018-07-31T22:06:53.851Z,9.40
2018-07-31T22:09:27.288Z,7.20
2018-07-31T22:11:55.367Z,7.63
2018-07-31T22:14:23.408Z,7.67
2018-07-31T22:16:51.459Z,7.40
2018-07-31T22:19:19.515Z,8.17
2018-07-31T22:21:47.575Z,7.53
2018-07-31T22:24:15.671Z,7.57
2018-07-31T22:26:43.723Z,7.63
2018-07-31T22:29:11.771Z,7.83
2018-07-31T22:31:39.963Z,7.93
2018-07-31T22:34:08.500Z,8.00
2018-07-31T22:36:36.565Z,8.47
2018-07-31T22:39:07.576Z,7.60
2018-07-31T22:41:35.638Z,7.43
2018-07-31T22:44:03.703Z,8.43
2018-07-31T22:46:31.744Z,8.00
2018-07-31T22:48:59.796Z,8.27
2018-07-31T22:51:27.854Z,7.50
2018-07-31T22:53:55.904Z,8.73
2018-07-31T22:56:23.994Z,7.60
2018-07-31T22:58:52.046Z,7.63
2018-07-31T23:01:20.125Z,7.67
2018-07-31T23:03:48.206Z,7.63
2018-07-31T23:06:18.395Z,7.53
2018-07-31T23:08:46.518Z,8.13
2018-07-31T23:11:14.563Z,8.43
2018-07-31T23:13:42.676Z,9.13
2018-07-31T23:16:10.727Z,8.63
2018-07-31T23:18:38.768Z,8.40
2018-07-31T23:21:06.938Z,8.30
2018-07-31T23:23:34.961Z,7.73
2018-07-31T23:26:03.216Z,7.40
2018-07-31T23:28:32.363Z,8.57
2018-07-31T23:31:00.376Z,9.30
2018-07-31T23:33:28.443Z,8.43
2018-07-31T23:35:56.495Z,9.67
2018-07-31T23:38:24.549Z,8.90
2018-07-31T23:40:52.615Z,9.93
2018-07-31T23:43:20.665Z,8.43
2018-07-31T23:45:48.742Z,9.57
2018-07-31T23:48:16.905Z,9.70
2018-07-31T23:50:44.961Z,9.50
2018-07-31T23:53:13.012Z,8.90
2018-07-31T23:55:41.054Z,9.13
2018-07-31T23:58:09.116Z,10.17
